Time;durP1;ratioP1;P1;durP2;ratioP2;P2;SDS_P1;SDS_P2;PMS_P1;PMS_P2;Temp;Humidity;BMP_temperature;BMP_pressure;BME280_temperature;BME280_humidity;BME280_pressure;Samples;Min_cycle;Max_cycle;Signal;HPM_P1;HPM_P2
2022/01/04 00:02:18;;;;;;;2.40;0.88;;;;;;;13.17;60.46;98132.59;5153854;28;20050;-69
2022/01/04 00:05:10;;;;;;;3.42;1.13;;;;;;;13.05;60.89;98118.09;5145249;28;20073;-67
2022/01/04 00:08:00;;;;;;;2.55;0.80;;;;;;;12.79;62.47;98119.31;5153202;28;20118;-68
2022/01/04 00:10:54;;;;;;;2.10;0.70;;;;;;;12.78;62.54;98124.78;5153662;28;20034;-66
2022/01/04 00:13:47;;;;;;;3.58;0.90;;;;;;;13.12;61.38;98109.19;5154519;28;20054;-68
2022/01/04 00:16:38;;;;;;;1.83;0.80;;;;;;;13.24;61.62;98106.06;5151217;28;20058;-68
2022/01/04 00:19:29;;;;;;;2.47;0.65;;;;;;;13.19;61.27;98095.16;5151494;28;20142;-68
2022/01/04 00:22:20;;;;;;;3.60;1.00;;;;;;;12.54;63.05;98065.47;5144128;28;20050;-68
2022/01/04 00:25:11;;;;;;;5.25;0.90;;;;;;;12.98;62.39;98091.38;5150606;28;20140;-68
2022/01/04 00:28:01;;;;;;;2.10;0.82;;;;;;;12.67;63.19;98094.13;5149712;28;20453;-68
2022/01/04 00:30:51;;;;;;;2.20;0.75;;;;;;;12.63;63.86;98083.03;5150003;28;20180;-68
2022/01/04 00:33:42;;;;;;;3.47;0.75;;;;;;;12.89;62.36;98063.19;5143426;28;20077;-68
2022/01/04 00:36:33;;;;;;;2.47;1.00;;;;;;;13.01;62.27;98061.72;5153410;28;20129;-67
2022/01/04 00:39:23;;;;;;;2.55;0.70;;;;;;;13.23;61.75;98072.47;5153392;28;20406;-66
2022/01/04 00:42:13;;;;;;;1.67;0.80;;;;;;;12.68;62.98;98064.72;5157880;28;20042;-67
2022/01/04 00:45:03;;;;;;;2.28;0.90;;;;;;;12.76;62.91;98044.34;5156350;28;20069;-67
2022/01/04 00:50:44;;;;;;;3.05;0.80;;;;;;;12.95;63.03;98049.16;5155979;28;20081;-67
2022/01/04 00:53:34;;;;;;;2.50;1.10;;;;;;;12.99;62.41;98049.63;5156611;28;20065;-67
2022/01/04 00:56:25;;;;;;;4.70;1.15;;;;;;;12.70;63.36;98040.56;5155198;28;20047;-68
2022/01/04 00:59:15;;;;;;;2.00;1.08;;;;;;;13.19;62.08;98033.94;5151909;28;20484;-68
2022/01/04 01:02:05;;;;;;;1.65;0.77;;;;;;;13.07;62.48;98031.72;5169692;23;20054;-69
2022/01/04 01:04:56;;;;;;;3.25;1.15;;;;;;;12.96;62.71;98021.53;5159598;28;20050;-69
2022/01/04 01:07:46;;;;;;;1.90;0.77;;;;;;;12.94;62.89;98012.91;5158172;28;20053;-69
2022/01/04 01:10:43;;;;;;;1.60;0.80;;;;;;;12.94;62.85;98018.22;5161880;28;20565;-68
2022/01/04 01:13:34;;;;;;;1.98;0.70;;;;;;;12.73;63.19;98000.31;5156166;28;20050;-69
2022/01/04 01:16:24;;;;;;;6.43;1.20;;;;;;;13.08;61.98;97998.78;5158265;28;20176;-69
2022/01/04 01:19:15;;;;;;;1.40;0.80;;;;;;;13.42;61.35;97993.91;5158333;28;20057;-68
2022/01/04 01:22:05;;;;;;;2.47;1.00;;;;;;;13.39;61.53;97990.59;5159005;28;20058;-69
2022/01/04 01:24:54;;;;;;;1.58;0.80;;;;;;;12.76;63.30;97988.50;5147193;28;20080;-69
2022/01/04 01:27:44;;;;;;;2.75;0.82;;;;;;;12.97;62.99;97988.59;5144515;28;20046;-69
2022/01/04 01:30:37;;;;;;;1.50;0.85;;;;;;;13.28;61.71;97977.78;5159073;28;20043;-69
2022/01/04 01:33:28;;;;;;;1.37;0.80;;;;;;;13.26;61.84;97963.00;5160960;28;20105;-69
2022/01/04 01:36:18;;;;;;;3.47;1.00;;;;;;;13.03;62.98;97966.56;5161425;28;20679;-69
2022/01/04 01:39:08;;;;;;;2.38;0.80;;;;;;;13.05;62.86;97953.09;5146049;28;20112;-69
2022/01/04 01:41:59;;;;;;;1.98;0.80;;;;;;;13.37;61.37;97946.53;5158677;28;20042;-69
2022/01/04 01:44:49;;;;;;;0.93;0.70;;;;;;;13.35;61.83;97929.94;5158992;28;20042;-68
2022/01/04 01:47:41;;;;;;;1.63;0.85;;;;;;;13.27;61.91;97922.06;5140700;28;20061;-69
2022/01/04 01:50:31;;;;;;;1.90;0.75;;;;;;;12.91;62.98;97917.47;5143413;28;20176;-69
2022/01/04 01:53:22;;;;;;;1.88;0.80;;;;;;;13.32;61.87;97903.69;5160133;28;20101;-69
2022/01/04 01:56:12;;;;;;;2.55;1.00;;;;;;;13.22;62.43;97892.50;5155019;28;20057;-69
2022/01/04 01:59:02;;;;;;;2.63;1.00;;;;;;;13.05;62.64;97894.53;5161683;28;20050;-69
2022/01/04 02:01:52;;;;;;;4.93;1.00;;;;;;;13.21;62.30;97894.34;5156909;28;20104;-69
2022/01/04 02:04:43;;;;;;;3.15;1.00;;;;;;;13.36;61.50;97875.66;5157905;28;20105;-69
2022/01/04 02:07:35;;;;;;;3.28;1.20;;;;;;;12.87;63.60;97877.13;5156549;28;20074;-69
2022/01/04 02:10:25;;;;;;;1.88;0.70;;;;;;;13.47;61.28;97883.16;5158612;28;20034;-69
2022/01/04 02:13:15;;;;;;;2.17;0.93;;;;;;;13.42;61.19;97874.09;5158543;28;20189;-69
2022/01/04 02:16:10;;;;;;;1.38;1.00;;;;;;;13.01;62.58;97861.31;5159447;28;20050;-69
2022/01/04 02:19:05;;;;;;;2.67;1.08;;;;;;;13.03;62.44;97853.97;5159375;28;20121;-69
2022/01/04 02:21:55;;;;;;;2.55;0.80;;;;;;;12.07;64.81;97822.03;5161932;28;20060;-69
2022/01/04 02:24:45;;;;;;;4.28;0.85;;;;;;;12.21;64.74;97841.66;5144069;28;20634;-69
2022/01/04 02:27:38;;;;;;;1.50;0.80;;;;;;;12.53;64.36;97837.81;5156812;28;20054;-68
2022/01/04 02:30:28;;;;;;;3.22;1.02;;;;;;;12.76;63.90;97820.94;5155885;28;20117;-69
2022/01/04 02:33:18;;;;;;;1.05;0.90;;;;;;;12.54;64.58;97823.50;5159530;28;20052;-69
2022/01/04 02:36:08;;;;;;;2.05;1.10;;;;;;;12.97;62.94;97818.28;5160597;28;20073;-68
2022/01/04 02:38:58;;;;;;;2.17;0.88;;;;;;;12.67;63.76;97801.59;5158695;28;21229;-69
2022/01/04 02:41:49;;;;;;;1.23;0.90;;;;;;;12.56;64.35;97805.53;5160294;28;20466;-69
2022/01/04 02:44:39;;;;;;;1.75;1.00;;;;;;;12.35;65.38;97785.03;5159012;28;20157;-70
2022/01/04 02:47:29;;;;;;;3.15;1.00;;;;;;;12.41;65.00;97772.81;5157566;28;20100;-69
2022/01/04 02:50:19;;;;;;;2.53;1.10;;;;;;;12.09;65.92;97766.09;5159383;28;20053;-69
2022/01/04 02:53:09;;;;;;;2.88;1.10;;;;;;;11.80;67.39;97745.63;5158806;28;20073;-69
2022/01/04 02:55:59;;;;;;;2.70;1.20;;;;;;;11.94;66.74;97755.44;5158877;28;20116;-69
2022/01/04 02:58:49;;;;;;;4.13;1.42;;;;;;;11.82;67.15;97752.41;5160155;28;20049;-69
2022/01/04 03:01:40;;;;;;;3.03;1.30;;;;;;;12.10;66.47;97741.97;5158905;28;20043;-69
2022/01/04 03:04:31;;;;;;;2.60;1.27;;;;;;;12.35;65.75;97739.84;5162815;28;20086;-69
2022/01/04 03:07:21;;;;;;;5.00;1.30;;;;;;;12.46;65.67;97738.53;5152049;28;20089;-69
2022/01/04 03:10:12;;;;;;;3.75;1.35;;;;;;;12.52;65.02;97735.16;5165326;28;20065;-69
2022/01/04 03:13:04;;;;;;;3.60;1.30;;;;;;;12.66;64.75;97728.13;5162217;28;20141;-69
2022/01/04 03:15:54;;;;;;;2.53;1.10;;;;;;;12.79;64.94;97727.47;5163506;28;20619;-69
2022/01/04 03:19:06;;;;;;;3.42;1.40;;;;;;;12.70;64.44;97730.22;5163281;28;20044;-69
2022/01/04 03:21:56;;;;;;;2.40;1.40;;;;;;;12.59;65.12;97725.41;5162951;28;20045;-69
2022/01/04 03:24:46;;;;;;;3.50;1.63;;;;;;;12.66;65.03;97712.19;5163062;28;20056;-68
2022/01/04 03:27:35;;;;;;;1.95;1.02;;;;;;;12.61;65.23;97701.28;5162354;28;20062;-69
2022/01/04 03:30:25;;;;;;;2.60;1.52;;;;;;;12.48;65.18;97695.81;5161772;28;20162;-68
2022/01/04 03:33:15;;;;;;;5.68;1.50;;;;;;;12.43;65.23;97696.38;5146686;28;20069;-69
2022/01/04 03:36:06;;;;;;;4.65;1.30;;;;;;;12.68;64.80;97686.22;5148613;28;20069;-69
2022/01/04 03:38:57;;;;;;;4.47;1.60;;;;;;;12.57;64.99;97684.88;5163296;28;20074;-69
2022/01/04 03:41:47;;;;;;;2.80;1.65;;;;;;;12.94;63.99;97686.47;5145861;28;20054;-69
2022/01/04 03:44:38;;;;;;;3.17;1.45;;;;;;;13.06;63.08;97672.66;5148598;28;20054;-69
2022/01/04 03:47:28;;;;;;;2.38;1.35;;;;;;;12.89;64.37;97675.59;5160429;28;20050;-69
2022/01/04 03:50:18;;;;;;;2.80;1.52;;;;;;;12.96;63.95;97662.34;5160113;28;20056;-69
2022/01/04 03:53:08;;;;;;;3.40;1.70;;;;;;;12.94;63.97;97659.03;5161064;28;20054;-69
2022/01/04 03:55:59;;;;;;;2.60;1.50;;;;;;;12.71;65.45;97653.91;5163126;28;20506;-69
2022/01/04 03:58:49;;;;;;;2.33;1.13;;;;;;;12.87;64.89;97647.53;5161624;28;20050;-69
2022/01/04 04:01:39;;;;;;;2.25;1.35;;;;;;;12.87;64.81;97639.53;5146588;28;20156;-69
2022/01/04 04:04:29;;;;;;;4.28;1.45;;;;;;;12.92;64.25;97632.63;5159512;28;20052;-69
2022/01/04 04:07:20;;;;;;;2.35;1.33;;;;;;;12.93;64.79;97630.81;5161273;28;20080;-69
2022/01/04 04:10:11;;;;;;;5.25;1.75;;;;;;;13.06;64.20;97630.09;5147168;28;20057;-69
2022/01/04 04:13:02;;;;;;;5.38;1.98;;;;;;;13.17;63.88;97616.25;5161622;28;20038;-69
2022/01/04 04:15:52;;;;;;;3.25;1.50;;;;;;;12.94;64.93;97597.84;5159762;28;20050;-69
2022/01/04 04:18:43;;;;;;;3.33;1.52;;;;;;;13.06;64.42;97604.28;5161088;28;20132;-69
2022/01/04 04:21:33;;;;;;;4.43;1.45;;;;;;;12.75;65.79;97595.84;5160359;28;20620;-69
2022/01/04 04:24:23;;;;;;;6.70;1.52;;;;;;;12.76;65.92;97602.84;5147363;28;20049;-69
2022/01/04 04:27:14;;;;;;;4.93;1.70;;;;;;;12.90;65.40;97594.75;5147017;28;20133;-68
2022/01/04 04:30:05;;;;;;;2.30;1.33;;;;;;;12.98;65.39;97587.63;5144838;28;20065;-68
2022/01/04 04:32:55;;;;;;;2.15;1.27;;;;;;;12.98;65.15;97574.34;5162034;28;20053;-69
2022/01/04 04:35:46;;;;;;;2.83;1.50;;;;;;;12.69;66.68;97577.00;5160931;28;20050;-69
2022/01/04 04:38:36;;;;;;;2.50;1.38;;;;;;;12.80;66.37;97578.31;5145491;28;20080;-68
2022/01/04 04:41:26;;;;;;;3.33;1.63;;;;;;;12.92;65.43;97573.28;5160636;28;20050;-68
2022/01/04 04:44:16;;;;;;;5.45;1.27;;;;;;;12.86;66.28;97566.91;5163231;28;20046;-68
2022/01/04 04:47:06;;;;;;;6.95;1.25;;;;;;;12.86;66.01;97566.09;5159280;28;20057;-68
2022/01/04 04:49:57;;;;;;;1.60;1.05;;;;;;;12.88;66.28;97558.72;5164861;28;20038;-68
2022/01/04 04:52:47;;;;;;;2.60;1.48;;;;;;;12.69;66.83;97553.06;5162246;28;20419;-69
2022/01/04 04:55:37;;;;;;;2.70;1.55;;;;;;;12.81;66.79;97552.53;5162671;28;20092;-69
2022/01/04 04:58:29;;;;;;;2.35;1.15;;;;;;;12.50;66.86;97513.03;5160837;28;20587;-68
2022/01/04 05:01:19;;;;;;;1.23;1.10;;;;;;;12.74;66.89;97535.69;5158692;28;20586;-68
2022/01/04 05:04:09;;;;;;;4.28;1.20;;;;;;;12.90;66.41;97538.06;5158038;28;20072;-69
2022/01/04 05:07:00;;;;;;;4.50;1.25;;;;;;;12.72;67.58;97525.28;5160673;28;20097;-68
2022/01/04 05:09:50;;;;;;;2.95;1.00;;;;;;;12.65;67.99;97525.22;5162187;28;20550;-68
2022/01/04 05:12:40;;;;;;;5.13;1.20;;;;;;;12.83;67.04;97518.59;5160197;28;20132;-68
2022/01/04 05:15:31;;;;;;;2.72;1.10;;;;;;;13.02;66.50;97517.91;5148897;28;20042;-68
2022/01/04 05:18:21;;;;;;;4.32;1.25;;;;;;;13.06;66.03;97511.16;5160740;28;20500;-69
2022/01/04 05:21:11;;;;;;;3.45;1.10;;;;;;;13.11;66.03;97510.56;5158334;28;20039;-68
2022/01/04 05:24:02;;;;;;;2.53;0.90;;;;;;;13.00;67.01;97503.97;5161041;28;20132;-68
2022/01/04 05:26:52;;;;;;;2.97;0.82;;;;;;;13.06;66.71;97497.84;5158113;28;20108;-68
2022/01/04 05:29:42;;;;;;;1.52;1.00;;;;;;;13.32;65.66;97493.72;5163106;28;20057;-68
2022/01/04 05:32:32;;;;;;;2.47;1.10;;;;;;;12.97;66.21;97460.97;5161202;28;20061;-68
2022/01/04 05:35:22;;;;;;;2.15;1.20;;;;;;;13.14;66.76;97473.75;5159904;28;20050;-68
2022/01/04 05:38:12;;;;;;;3.45;1.08;;;;;;;12.70;67.15;97450.97;5160523;28;20137;-68
2022/01/04 05:41:02;;;;;;;3.80;1.00;;;;;;;12.70;68.73;97466.13;5162888;28;20046;-68
2022/01/04 05:43:52;;;;;;;2.00;0.85;;;;;;;12.69;67.81;97451.19;5157581;28;20062;-68
2022/01/04 05:46:43;;;;;;;1.40;1.00;;;;;;;12.84;67.88;97459.88;5160782;28;20523;-68
2022/01/04 05:49:33;;;;;;;2.58;0.90;;;;;;;13.12;67.13;97457.16;5159330;28;20049;-68
2022/01/04 05:52:24;;;;;;;3.92;1.10;;;;;;;12.91;67.95;97451.91;5158791;28;20046;-68
2022/01/04 05:55:14;;;;;;;3.15;1.00;;;;;;;13.25;66.68;97440.47;5159060;28;20069;-68
2022/01/04 05:58:04;;;;;;;3.08;1.05;;;;;;;13.01;67.44;97431.09;5159920;28;20176;-68
2022/01/04 06:00:54;;;;;;;2.65;1.23;;;;;;;13.15;66.97;97437.31;5162195;28;20049;-68
2022/01/04 06:03:46;;;;;;;1.88;1.00;;;;;;;13.28;66.44;97433.94;5155661;28;20061;-68
2022/01/04 06:06:39;;;;;;;3.25;1.10;;;;;;;12.91;68.01;97433.28;5159100;28;20047;-68
2022/01/04 06:09:39;;;;;;;1.92;0.93;;;;;;;12.87;68.42;97424.88;5159205;28;20124;-68
2022/01/04 06:15:20;;;;;;;2.35;1.10;;;;;;;12.75;69.09;97428.28;5159260;28;20121;-68
2022/01/04 06:18:10;;;;;;;3.40;1.00;;;;;;;13.07;68.17;97416.19;5157721;28;20049;-68
2022/01/04 06:21:00;;;;;;;1.48;1.13;;;;;;;12.78;68.71;97394.19;5159397;28;20054;-68
2022/01/04 06:23:50;;;;;;;3.78;1.00;;;;;;;12.62;69.77;97400.63;5144504;28;20050;-68
2022/01/04 06:26:40;;;;;;;1.35;0.90;;;;;;;12.97;68.21;97397.13;5144376;28;20053;-68
2022/01/04 06:29:31;;;;;;;1.85;1.10;;;;;;;12.50;69.89;97391.56;5159109;28;20562;-68
2022/01/04 06:32:22;;;;;;;3.08;0.98;;;;;;;12.98;68.82;97383.63;5154125;28;20558;-68
2022/01/04 06:35:14;;;;;;;2.42;0.90;;;;;;;12.77;69.43;97373.91;5157835;28;20043;-68
2022/01/04 06:38:04;;;;;;;1.92;1.27;;;;;;;12.75;69.35;97364.47;5157721;28;20053;-68
2022/01/04 06:40:54;;;;;;;1.65;1.02;;;;;;;12.58;69.89;97361.31;5159435;28;20042;-68
2022/01/04 06:43:44;;;;;;;2.30;0.95;;;;;;;12.87;68.75;97334.44;5158149;28;20086;-68
2022/01/04 06:46:34;;;;;;;1.33;0.90;;;;;;;13.27;68.32;97357.75;5159041;28;20140;-68
2022/01/04 06:49:25;;;;;;;3.53;1.67;;;;;;;13.00;68.92;97354.16;5156967;28;20176;-68
2022/01/04 06:52:15;;;;;;;3.05;1.10;;;;;;;13.20;68.15;97357.69;5158638;28;20057;-68
2022/01/04 06:55:06;;;;;;;1.73;1.02;;;;;;;13.31;68.20;97354.50;5158012;28;20436;-68
2022/01/04 06:57:56;;;;;;;2.70;1.15;;;;;;;13.11;68.96;97353.56;5140587;28;20206;-68
2022/01/04 07:00:46;;;;;;;3.78;1.35;;;;;;;12.99;70.10;97358.66;5157577;28;20045;-68
2022/01/04 07:03:36;;;;;;;2.55;0.95;;;;;;;13.13;68.93;97348.88;5157908;28;20085;-69
2022/01/04 07:06:27;;;;;;;2.67;0.93;;;;;;;13.22;68.46;97333.56;5153707;28;20105;-68
2022/01/04 07:09:17;;;;;;;1.20;0.80;;;;;;;13.03;69.29;97329.81;5158266;28;20050;-68
2022/01/04 07:12:07;;;;;;;2.55;1.25;;;;;;;13.07;69.21;97331.84;5158269;28;20836;-68
2022/01/04 07:14:57;;;;;;;2.08;1.00;;;;;;;12.83;69.66;97321.75;5160449;28;20053;-68
2022/01/04 07:17:47;;;;;;;2.83;1.05;;;;;;;13.02;69.77;97330.84;5157723;28;20061;-68
2022/01/04 07:20:37;;;;;;;4.75;1.23;;;;;;;12.99;70.42;97325.91;5159904;28;20048;-69
2022/01/04 07:23:28;;;;;;;2.50;1.15;;;;;;;13.33;68.46;97322.34;5156206;28;20113;-68
2022/01/04 07:26:17;;;;;;;2.50;0.90;;;;;;;13.02;69.99;97315.69;5143554;28;20121;-68
2022/01/04 07:29:07;;;;;;;2.60;0.98;;;;;;;12.92;71.20;97316.06;5155105;28;20061;-68
2022/01/04 07:31:58;;;;;;;3.53;1.40;;;;;;;12.96;69.76;97308.50;5147323;28;20072;-68
2022/01/04 07:34:48;;;;;;;1.65;0.93;;;;;;;12.95;70.75;97304.22;5159116;28;20043;-68
2022/01/04 07:37:38;;;;;;;6.95;1.08;;;;;;;13.12;70.02;97310.00;5159209;28;20049;-68
2022/01/04 07:40:28;;;;;;;2.08;1.20;;;;;;;12.74;71.95;97299.00;5153662;28;20141;-69
2022/01/04 07:43:19;;;;;;;4.25;1.13;;;;;;;12.94;71.08;97303.38;5156495;28;20060;-68
2022/01/04 07:46:09;;;;;;;2.25;1.30;;;;;;;12.70;72.10;97295.94;5157026;28;20069;-68
2022/01/04 07:48:59;;;;;;;2.67;1.20;;;;;;;12.80;71.64;97291.06;5159387;28;20057;-68
2022/01/04 07:51:49;;;;;;;3.28;1.20;;;;;;;12.72;72.01;97283.28;5161556;28;20053;-68
2022/01/04 07:54:41;;;;;;;2.17;1.42;;;;;;;12.62;72.21;97273.00;5163307;28;20065;-68
2022/01/04 07:57:31;;;;;;;6.20;3.15;;;;;;;12.55;71.81;97277.47;5143665;28;20065;-68
2022/01/04 08:00:22;;;;;;;2.60;1.52;;;;;;;12.78;71.49;97271.84;5159748;28;20054;-68
2022/01/04 08:03:13;;;;;;;3.22;1.70;;;;;;;12.79;71.54;97272.66;5157662;28;20046;-67
2022/01/04 08:06:03;;;;;;;4.82;1.92;;;;;;;12.84;71.59;97259.56;5160483;28;20046;-68
2022/01/04 08:08:53;;;;;;;3.28;2.05;;;;;;;12.77;71.36;97258.72;5143715;28;20047;-67
2022/01/04 08:11:44;;;;;;;5.03;2.28;;;;;;;12.69;72.22;97260.53;5158141;28;20136;-68
2022/01/04 08:14:34;;;;;;;2.95;2.08;;;;;;;12.82;71.86;97254.44;5140428;28;20177;-68
2022/01/04 08:17:29;;;;;;;5.60;2.20;;;;;;;12.91;71.38;97245.28;5156507;28;20049;-67
2022/01/04 08:20:19;;;;;;;3.28;1.80;;;;;;;13.02;70.55;97262.47;5157092;28;20094;-68
2022/01/04 08:23:10;;;;;;;2.50;1.67;;;;;;;13.11;70.45;97261.28;5152607;28;20204;-67
2022/01/04 08:26:00;;;;;;;2.85;1.42;;;;;;;13.15;70.86;97246.53;5158938;28;20046;-70
2022/01/04 08:28:50;;;;;;;12.75;1.77;;;;;;;13.02;70.95;97246.50;5141305;28;20058;-69
2022/01/04 08:31:41;;;;;;;1.50;0.98;;;;;;;13.42;69.67;97238.59;5157978;28;20054;-69
2022/01/04 08:34:31;;;;;;;1.02;0.80;;;;;;;13.40;70.41;97232.66;5160689;28;20095;-69
2022/01/04 08:37:20;;;;;;;1.35;0.70;;;;;;;13.76;69.18;97234.88;5160826;28;20070;-69
2022/01/04 08:40:11;;;;;;;1.92;1.02;;;;;;;13.43;70.51;97237.56;5140392;28;20669;-70
2022/01/04 08:43:01;;;;;;;2.65;1.27;;;;;;;13.45;70.61;97234.72;5160130;28;20038;-70
2022/01/04 08:45:51;;;;;;;2.45;0.90;;;;;;;13.44;70.48;97227.72;5159933;28;20054;-69
2022/01/04 08:48:42;;;;;;;2.75;0.95;;;;;;;13.52;70.42;97231.03;5161170;28;20523;-69
2022/01/04 08:51:33;;;;;;;3.38;1.00;;;;;;;13.38;70.97;97216.91;5160784;28;20061;-70
2022/01/04 08:54:23;;;;;;;3.40;1.50;;;;;;;13.55;71.05;97208.50;5161381;28;20741;-68
2022/01/04 08:57:13;;;;;;;3.58;1.00;;;;;;;13.77;70.00;97190.41;5159957;28;20054;-70
2022/01/04 09:00:07;;;;;;;2.67;1.30;;;;;;;13.64;70.93;97196.56;5153643;28;20061;-69
2022/01/04 09:02:59;;;;;;;8.68;1.10;;;;;;;13.72;70.38;97199.03;5154172;28;20049;-69
2022/01/04 09:05:50;;;;;;;2.08;0.90;;;;;;;13.04;72.73;97209.06;5152172;28;20124;-69
2022/01/04 09:08:40;;;;;;;1.70;1.13;;;;;;;13.79;70.19;97199.03;5151886;28;20049;-68
2022/01/04 09:11:30;;;;;;;5.60;1.10;;;;;;;13.76;70.54;97202.91;5155176;28;20101;-69
2022/01/04 09:14:27;;;;;;;1.48;0.90;;;;;;;13.79;70.02;97194.50;5158632;28;20066;-69
2022/01/04 09:20:27;;;;;;;3.70;1.00;;;;;;;13.90;70.76;97190.38;5154632;28;20061;-71
2022/01/04 09:23:20;;;;;;;4.80;1.25;;;;;;;13.75;70.40;97189.81;5158126;28;20136;-69
2022/01/04 09:26:12;;;;;;;3.47;1.45;;;;;;;13.80;71.00;97179.34;5141960;28;20061;-69
2022/01/04 09:29:03;;;;;;;5.60;0.90;;;;;;;13.78;70.38;97174.25;5157883;28;20108;-68
2022/01/04 09:31:54;;;;;;;4.90;1.13;;;;;;;13.66;71.10;97172.41;5156585;28;20800;-68
2022/01/04 09:34:44;;;;;;;1.40;1.00;;;;;;;13.70;71.15;97174.44;5154682;28;20061;-69
2022/01/04 09:37:34;;;;;;;2.72;1.30;;;;;;;13.77;70.88;97161.94;5155986;28;20058;-69
2022/01/04 09:40:31;;;;;;;1.83;1.13;;;;;;;14.03;70.27;97162.88;5157867;28;20173;-68
2022/01/04 09:43:22;;;;;;;4.97;1.17;;;;;;;14.40;68.29;97168.47;5156613;28;20052;-67
2022/01/04 09:46:12;;;;;;;2.35;0.93;;;;;;;13.54;71.69;97161.56;5158941;28;20065;-68
2022/01/04 09:49:02;;;;;;;2.20;0.95;;;;;;;13.91;70.18;97162.72;5156111;28;20061;-69
2022/01/04 09:51:53;;;;;;;5.35;1.20;;;;;;;13.99;69.11;97159.81;5153183;28;20096;-70
2022/01/04 09:54:44;;;;;;;2.35;0.95;;;;;;;13.64;71.03;97175.28;5155970;28;20045;-70
2022/01/04 09:57:34;;;;;;;4.10;1.15;;;;;;;13.57;71.27;97171.81;5157555;28;20053;-69
2022/01/04 10:00:24;;;;;;;3.40;1.48;;;;;;;14.32;68.59;97165.03;5142061;28;20096;-68
2022/01/04 10:03:26;;;;;;;2.70;0.90;;;;;;;13.36;72.07;97164.88;5157561;28;20132;-69
2022/01/04 10:06:17;;;;;;;3.17;1.00;;;;;;;13.82;70.50;97171.97;5154861;28;20101;-70
2022/01/04 10:09:11;;;;;;;4.55;1.10;;;;;;;13.58;71.62;97160.16;5155819;28;20573;-70
2022/01/04 10:12:05;;;;;;;2.95;1.55;;;;;;;13.90;70.14;97153.09;5156989;28;20188;-69
2022/01/04 10:14:56;;;;;;;2.10;1.20;;;;;;;13.67;71.02;97131.44;5154994;28;20050;-69
2022/01/04 10:17:46;;;;;;;2.30;1.20;;;;;;;13.80;70.47;97144.72;5155287;28;20548;-70
2022/01/04 10:20:36;;;;;;;2.05;0.80;;;;;;;13.58;70.35;97112.22;5155844;28;20053;-70
2022/01/04 10:23:26;;;;;;;3.92;0.98;;;;;;;13.94;69.37;97127.69;5154599;28;20054;-69
2022/01/04 10:26:25;;;;;;;2.10;0.98;;;;;;;14.01;69.91;97136.47;5153617;28;20066;-69
2022/01/04 10:29:20;;;;;;;2.63;1.15;;;;;;;13.82;70.42;97129.34;5156268;28;20053;-70
2022/01/04 10:32:12;;;;;;;2.15;1.17;;;;;;;13.76;70.66;97127.53;5138850;28;20136;-68
2022/01/04 10:35:02;;;;;;;1.23;0.90;;;;;;;14.36;69.00;97122.75;5156813;28;20505;-70
2022/01/04 10:37:53;;;;;;;3.20;1.20;;;;;;;13.68;70.39;97109.94;5158009;28;20093;-69
2022/01/04 10:41:05;;;;;;;13.73;1.73;;;;;;;13.79;71.07;97097.81;5157854;28;20417;-69
2022/01/04 10:44:07;;;;;;;2.83;1.08;;;;;;;13.65;72.04;97088.25;5162463;28;20057;-70
2022/01/04 10:47:07;;;;;;;2.15;1.02;;;;;;;14.07;70.47;97106.31;5164479;28;20505;-69
2022/01/04 10:49:58;;;;;;;3.03;1.10;;;;;;;14.33;70.35;97094.66;5161729;28;20056;-69
2022/01/04 10:52:48;;;;;;;3.05;1.27;;;;;;;14.29;70.26;97100.66;5160372;28;20527;-70
2022/01/04 10:55:38;;;;;;;5.28;1.08;;;;;;;14.38;69.10;97094.03;5159980;28;20551;-71
2022/01/04 10:58:35;;;;;;;1.35;1.00;;;;;;;14.30;69.40;97100.44;5158418;28;20115;-71
2022/01/04 11:01:39;;;;;;;4.50;1.10;;;;;;;14.05;70.28;97102.22;5161869;28;20051;-69
2022/01/04 11:04:29;;;;;;;;;;;;;;;13.79;70.96;97093.28;5163796;28;20050;-69
2022/01/04 11:07:19;;;;;;;2.67;1.55;;;;;;;14.16;70.75;97088.22;5159768;28;19955;-69
2022/01/04 11:10:09;;;;;;;5.13;1.35;;;;;;;14.00;70.04;97089.50;5162809;28;20078;-69
2022/01/04 11:13:00;;;;;;;3.13;1.30;;;;;;;13.90;70.48;97086.47;5163748;28;20042;-69
2022/01/04 11:15:51;;;;;;;4.68;1.20;;;;;;;14.12;69.59;97086.19;5164509;28;20593;-69
2022/01/04 11:18:41;;;;;;;3.50;1.30;;;;;;;14.15;69.83;97096.44;5154585;28;20053;-68
2022/01/04 11:21:37;;;;;;;3.92;1.40;;;;;;;14.08;70.25;97089.28;5160894;28;20076;-71
2022/01/04 11:24:27;;;;;;;4.25;1.20;;;;;;;14.36;69.13;97093.44;5147206;28;20046;-71
2022/01/04 11:27:23;;;;;;;6.63;1.35;;;;;;;13.93;70.14;97072.75;5163943;28;20054;-68
2022/01/04 11:30:19;;;;;;;1.52;1.10;;;;;;;14.18;69.58;97086.16;5162921;28;20049;-71
2022/01/04 11:33:23;;;;;;;2.50;1.20;;;;;;;14.09;70.38;97087.44;5148762;28;20542;-69
2022/01/04 11:36:15;;;;;;;2.78;1.30;;;;;;;14.18;70.00;97083.50;5160800;28;20052;-69
2022/01/04 11:39:29;;;;;;;5.72;1.33;;;;;;;14.38;69.44;97075.38;5163591;28;20046;-70
2022/01/04 11:42:31;;;;;;;7.10;1.65;;;;;;;14.13;69.76;97085.16;5151785;28;20412;-68
2022/01/04 11:45:40;;;;;;;2.67;1.10;;;;;;;14.25;69.28;97080.78;5162888;28;20043;-69
2022/01/04 11:48:41;;;;;;;2.80;1.67;;;;;;;13.94;69.87;97066.41;5161369;28;20054;-70
2022/01/04 11:51:32;;;;;;;2.72;1.50;;;;;;;14.22;69.21;97076.69;5157256;28;20468;-70
2022/01/04 11:54:27;;;;;;;3.00;1.50;;;;;;;13.91;70.13;97072.16;5147064;28;20418;-70
2022/01/04 11:57:18;;;;;;;3.30;1.52;;;;;;;13.82;70.53;97057.44;5160440;28;20104;-70
2022/01/04 12:00:09;;;;;;;2.58;1.38;;;;;;;14.28;68.54;97051.84;5165721;28;20510;-69
2022/01/04 12:03:04;;;;;;;;;;;;;;;14.41;67.59;97069.63;5154799;28;20065;-69
2022/01/04 12:05:55;;;;;;;2.58;1.27;;;;;;;14.18;68.37;97061.34;5166173;28;20530;-69
2022/01/04 12:08:48;;;;;;;2.65;1.33;;;;;;;14.34;68.31;97060.84;5167832;28;20659;-69
2022/01/04 12:11:41;;;;;;;4.33;1.43;;;;;;;14.43;67.91;97062.19;5168420;28;20069;-69
2022/01/04 12:14:33;;;;;;;2.95;1.17;;;;;;;14.17;67.79;97043.72;5144397;28;20531;-70
2022/01/04 12:17:33;;;;;;;3.40;1.58;;;;;;;13.99;69.49;97065.75;5165763;28;20117;-69
2022/01/04 12:20:42;;;;;;;2.15;1.25;;;;;;;14.13;68.84;97056.66;5157111;28;20058;-69
2022/01/04 12:23:37;;;;;;;3.08;1.40;;;;;;;14.12;69.22;97064.88;5154866;28;20181;-71
2022/01/04 12:26:32;;;;;;;2.20;1.42;;;;;;;14.01;69.53;97047.72;5155097;28;20050;-70
2022/01/04 12:29:24;;;;;;;5.03;1.50;;;;;;;14.08;68.32;97054.63;5163391;28;20042;-70
2022/01/04 12:32:21;;;;;;;6.80;1.58;;;;;;;13.72;69.91;97054.41;5165118;28;20052;-70
2022/01/04 12:35:11;;;;;;;3.97;2.00;;;;;;;13.83;70.27;97049.22;5159646;28;20116;-69
2022/01/04 12:38:06;;;;;;;2.28;1.67;;;;;;;13.54;69.61;97020.44;5162444;28;20185;-68
2022/01/04 12:40:58;;;;;;;3.55;1.95;;;;;;;13.23;72.13;97061.06;5163557;28;20104;-68
2022/01/04 12:43:50;;;;;;;3.05;1.52;;;;;;;13.72;70.38;97060.53;5160553;28;20140;-68
2022/01/04 12:46:46;;;;;;;4.00;2.20;;;;;;;14.11;69.45;97058.72;5162164;28;20104;-68
2022/01/04 12:49:37;;;;;;;8.75;2.10;;;;;;;13.91;70.17;97064.16;5160821;28;20448;-68
2022/01/04 12:52:28;;;;;;;6.43;1.80;;;;;;;13.73;70.39;97061.34;5163480;28;20096;-69
2022/01/04 12:55:18;;;;;;;3.42;2.03;;;;;;;13.39;71.74;97058.00;5159728;28;20425;-68
2022/01/04 12:58:08;;;;;;;2.70;1.65;;;;;;;13.80;69.81;97057.63;5167662;28;20510;-69
2022/01/04 13:00:58;;;;;;;5.07;2.22;;;;;;;14.11;69.09;97058.72;5149135;28;20142;-69
2022/01/04 13:03:50;;;;;;;4.60;1.85;;;;;;;13.61;70.10;97055.88;5148226;28;20045;-68
2022/01/04 13:06:39;;;;;;;11.02;4.47;;;;;;;13.77;71.19;97076.69;5158937;28;20054;-69
2022/01/04 13:09:30;;;;;;;5.63;1.73;;;;;;;13.38;71.38;97085.66;5154184;28;20149;-68
2022/01/04 13:12:22;;;;;;;6.35;1.90;;;;;;;13.85;70.55;97089.78;5156745;28;20049;-68
2022/01/04 13:15:16;;;;;;;2.92;1.90;;;;;;;13.34;71.90;97089.72;5145519;28;20412;-68
2022/01/04 13:18:06;;;;;;;4.07;2.40;;;;;;;13.24;71.63;97090.16;5158537;28;20652;-68
2022/01/04 13:21:05;;;;;;;3.50;1.98;;;;;;;13.79;70.16;97077.31;5158886;28;20188;-69
2022/01/04 13:23:55;;;;;;;5.88;2.00;;;;;;;13.05;71.55;97057.22;5143332;28;20048;-68
2022/01/04 13:26:45;;;;;;;2.85;1.90;;;;;;;13.67;71.75;97094.16;5151134;28;20053;-68
2022/01/04 13:29:35;;;;;;;6.15;2.00;;;;;;;13.80;70.65;97083.44;5144006;28;20068;-69
2022/01/04 13:32:31;;;;;;;5.45;2.10;;;;;;;14.05;70.29;97103.03;5155359;28;20050;-69
2022/01/04 13:35:32;;;;;;;6.00;2.20;;;;;;;12.87;74.31;97110.22;5151776;28;20178;-69
2022/01/04 13:38:24;;;;;;;4.28;1.50;;;;;;;11.61;76.65;97208.06;5151615;28;20533;-69